• Join FlightAware (Why Join?)
  • Login
  • US Flag 
09:14AM EDT


 

Airport Tracker/Info


-or-


 

Live Flight TrackerFlight Track Log ✈ SWA662 ✈ 13-Jun-2013 ✈ KLAX - KDEN

Flight Track Log - Related Links

Times and Time Zones

All times are in EDT time to prevent confusion due to time zone crossing. See the SWA662 flight status page for this flight to view local times or setup timezone preferences in your user account.

Time Position Orientation Groundspeed Altitude Reporting Facility
EDT Latitude Longitude Course Direction KTS MPH feet Rate Location/Type
12:24AM 33.9500 -118.4500 220° Southwest 161 185 1,300  Level Southern California TRACON
12:25AM 33.9000 -118.5000 220° Southwest 230 265 2,700 1,740 Climbing Southern California TRACON
12:26AM 33.8292 -118.5114 188° South 269 310 4,900 2,580 Climbing Los Angeles Center
12:27AM 33.7531 -118.5169 183° South 278 320 8,000 2,640 Climbing Los Angeles Center
12:28AM 33.6844 -118.4800 156° South 304 350 10,400 2,340 Climbing Los Angeles Center
12:29AM 33.6900 -118.3494 87° East 343 395 12,800 2,340 Climbing Los Angeles Center
12:30AM 33.7253 -118.2397 69° East 365 420 15,200 2,040 Climbing Los Angeles Center
12:31AM 33.7631 -118.1203 69° East 382 440 17,000 2,040 Climbing Los Angeles Center
12:32AM 33.8300 -118.0117 53° Northeast 410 472 19,400 2,040 Climbing Los Angeles Center
12:33AM 33.9236 -117.9283 36° Northeast 421 484 21,300 2,160 Climbing Los Angeles Center
12:34AM 34.0400 -117.8225 37° Northeast 437 503 23,900 2,220 Climbing Los Angeles Center
12:35AM 34.1319 -117.7225 42° Northeast 445 512 25,900 1,740 Climbing Los Angeles Center
12:36AM 34.2142 -117.6083 49° Northeast 451 519 27,500 1,320 Climbing Los Angeles Center
12:37AM 34.3000 -117.4925 48° Northeast 460 529 28,700 1,140 Climbing Los Angeles Center
12:38AM 34.3922 -117.3653 49° Northeast 479 551 29,900 1,080 Climbing Los Angeles Center
12:39AM 34.4822 -117.2422 48° Northeast 489 563 31,000 1,260 Climbing Los Angeles Center
12:40AM 34.5722 -117.1169 49° Northeast 495 570 32,500 1,260 Climbing Los Angeles Center
12:41AM 34.6628 -116.9911 49° Northeast 498 573 33,600 1,140 Climbing Los Angeles Center
12:42AM 34.7533 -116.8656 49° Northeast 498 573 34,900 1,200 Climbing Los Angeles Center
12:43AM 34.8433 -116.7417 48° Northeast 492 566 36,100 1,020 Climbing Los Angeles Center
12:44AM 34.9503 -116.5911 49° Northeast 491 565 37,000 420 Climbing Los Angeles Center
12:45AM 35.0436 -116.4725 46° Northeast 489 563 37,000  Level Los Angeles Center
12:47AM 35.1383 -116.3539 46° Northeast 489 563 37,000  Level Los Angeles Center
12:48AM 35.2347 -116.2353 45° Northeast 492 566 37,000  Level Los Angeles Center
12:49AM 35.3261 -116.1139 47° Northeast 487 560 37,000  Level Los Angeles Center
12:50AM 35.3919 -115.9686 61° Northeast 488 562 37,000  Level Los Angeles Center
12:51AM 35.4556 -115.8211 62° Northeast 491 565 37,000  Level Los Angeles Center
12:52AM 35.5206 -115.6650 63° Northeast 489 563 37,000  Level Los Angeles Center
12:53AM 35.5939 -115.4858 63° Northeast 494 568 37,000  Level Los Angeles Center
12:54AM 35.6561 -115.3356 63° Northeast 497 572 37,000  Level Los Angeles Center
12:55AM 35.7156 -115.1839 64° Northeast 496 571 37,000  Level Los Angeles Center
12:56AM 35.7750 -115.0364 64° Northeast 489 563 37,000  Level Los Angeles Center
12:57AM 35.8358 -114.8850 64° Northeast 492 566 37,000  Level Los Angeles Center
12:58AM 35.8997 -114.7306 63° Northeast 502 578 37,000  Level Los Angeles Center
12:59AM 35.9611 -114.5778 64° Northeast 501 577 37,000  Level Los Angeles Center
01:00AM 36.0325 -114.3950 64° Northeast 498 573 37,000  Level Los Angeles Center
01:01AM 36.0931 -114.2431 64° Northeast 495 570 37,000  Level Los Angeles Center
01:02AM 36.1517 -114.0906 65° Northeast 493 567 37,000  Level Los Angeles Center
01:03AM 36.2139 -113.9361 63° Northeast 499 574 37,000  Level Los Angeles Center
01:04AM 36.2733 -113.7811 65° Northeast 500 575 37,000  Level Los Angeles Center
01:05AM 36.3328 -113.6272 64° Northeast 498 573 37,000  Level Los Angeles Center
01:06AM 36.3925 -113.4736 64° Northeast 495 570 37,000  Level Los Angeles Center
01:07AM 36.4533 -113.3194 64° Northeast 497 572 37,000  Level Los Angeles Center
01:08AM 36.5236 -113.1322 65° Northeast 500 575 37,000  Level Los Angeles Center
01:09AM 36.5811 -112.9775 65° Northeast 497 572 37,000  Level Los Angeles Center
01:10AM 36.6406 -112.8231 64° Northeast 497 572 37,000  Level Los Angeles Center
01:11AM 36.7106 -112.6356 65° Northeast 500 575 37,000  Level Los Angeles Center
01:12AM 36.7700 -112.4800 64° Northeast 501 577 37,000  Level Los Angeles Center
01:13AM 36.8269 -112.3250 65° Northeast 497 572 37,000  Level Los Angeles Center
01:14AM 36.8967 -112.1392 65° Northeast 495 570 37,000  Level Los Angeles Center
01:15AM 36.9525 -111.9839 66° East 494 568 37,000  Level Los Angeles Center
01:16AM 37.0106 -111.8292 65° Northeast 495 570 37,000  Level Los Angeles Center
01:17AM 37.0678 -111.6722 65° Northeast 497 572 37,000  Level Los Angeles Center
01:18AM 37.0933 -111.6089 63° Northeast 498 573 37,000  Level Denver Center
01:19AM 37.1544 -111.4572 63° Northeast 493 567 37,000  Level Denver Center
01:20AM 37.2192 -111.3028 62° Northeast 500 575 37,000  Level Denver Center
01:21AM 37.2689 -111.1794 63° Northeast 500 575 37,000  Level Denver Center
01:22AM 37.3453 -110.9942 63° Northeast 499 574 37,000  Level Denver Center
01:23AM 37.4089 -110.8383 63° Northeast 501 577 37,000  Level Denver Center
01:24AM 37.4703 -110.6831 63° Northeast 498 573 37,000  Level Denver Center
01:25AM 37.5389 -110.5106 63° Northeast 497 572 37,000  Level Denver Center
01:26AM 37.5981 -110.3633 63° Northeast 492 566 37,000  Level Denver Center
01:27AM 37.6664 -110.1917 63° Northeast 491 565 37,000  Level Denver Center
01:28AM 37.7242 -110.0439 64° Northeast 490 564 37,000  Level Denver Center
01:29AM 37.7828 -109.8986 63° Northeast 487 560 37,000  Level Denver Center
01:30AM 37.8506 -109.7242 64° Northeast 492 566 37,000  Level Denver Center
01:31AM 37.9086 -109.5736 64° Northeast 495 570 37,000  Level Denver Center
01:32AM 37.9669 -109.4214 64° Northeast 499 574 37,000  Level Denver Center
01:34AM 38.0471 -109.2144 64° Northeast  Level FlightAware Approximate
01:34AM 38.0917 -109.0942 64° Northeast 504 580 37,000  Level Denver Center
01:36AM 38.1713 -108.8912 64° Northeast  Level FlightAware Approximate
01:38AM 38.3439 -108.4314 65° Northeast 507 583 37,000  Level Denver Center
01:39AM 38.4022 -108.2753 64° Northeast 511 588 37,000  Level Denver Center
01:40AM 38.4597 -108.1225 64° Northeast 503 579 37,000  Level Denver Center
01:41AM 38.5256 -107.9442 65° Northeast 500 575 37,000  Level Denver Center
01:42AM 38.5817 -107.7906 65° Northeast 499 574 37,000  Level Denver Center
01:43AM 38.5597 -107.8551 65° Northeast  Level FlightAware Approximate
01:43AM 38.6381 -107.6358 65° Northeast 502 578 37,000  Level Denver Center
01:44AM 38.7031 -107.4569 65° Northeast 499 574 37,000  Level Denver Center
01:45AM 38.7500 -107.3269 65° Northeast 503 579 37,000  Level Denver Center
01:46AM 38.8142 -107.1489 65° Northeast 504 580 37,000  Level Denver Center
01:47AM 38.8725 -106.9856 65° Northeast 507 583 37,000  Level Denver Center
01:48AM 38.9372 -106.8050 65° Northeast 506 582 37,000 -240 Level Denver Center
01:49AM 38.9919 -106.6481 66° East 505 581 36,600 -1,500 Descending Denver Center
01:50AM 39.0553 -106.4667 66° East 499 574 34,000 -2,400 Descending Denver Center
01:51AM 39.1081 -106.3153 66° East 489 563 31,800 -1,980 Descending Denver Center
01:52AM 39.1675 -106.1428 66° East 478 550 30,100 -1,800 Descending Denver Center
01:53AM 39.2197 -105.9919 66° East 463 533 28,200 -1,860 Descending Denver Center
01:54AM 39.2694 -105.8481 66° East 450 518 26,400 -2,040 Descending Denver Center
01:55AM 39.3219 -105.6958 66° East 462 532 24,100 -2,340 Descending Denver Center
01:56AM 39.3725 -105.5469 66° East 456 525 21,800 -1,920 Descending Denver Center
01:57AM 39.4336 -105.4089 60° Northeast 426 490 20,300 -1,860 Descending Denver Center
01:58AM 39.4975 -105.2864 56° Northeast 410 472 18,100 -1,920 Descending Denver Center
01:59AM 39.5608 -105.1675 55° Northeast 399 459 16,500 -1,920 Descending Denver Center
02:00AM 39.6175 -105.0492 58° Northeast 386 444 14,300 -2,100 Descending Denver Center
02:01AM 39.6531 -104.9197 70° East 382 440 12,300 -1,680 Descending Denver Center
02:02AM 39.6939 -104.7836 69° East 381 438 11,000 -660 Descending Denver Center
02:03AM 39.7239 -104.6789 70° East 317 365 11,000  Level Denver Center
02:04AM 39.7453 -104.5792 74° East 286 329 11,000  Level Denver Center
02:05AM 39.7619 -104.4878 77° East 264 304 11,100 -300 Climbing Denver Center
02:07AM 39.7775 -104.4064 76° East 229 264 10,400 -900 Descending Denver Center
02:08AM 39.8156 -104.3394 53° Northeast 240 276 9,300 -1,200 Descending Denver Center
02:09AM 39.8731 -104.3589 345° North 217 250 8,000 -1,080 Descending Denver Center
02:10AM 39.8750 -104.4289 272° West 195 224 7,200 -540 Descending Denver Center
02:11AM 39.8758 -104.5019 271° West 200 230 7,000 -600 Descending Denver Center
02:12AM 39.8764 -104.5664 271° West 182 209 6,100 -900 Descending Denver Center
02:13AM 39.8772 -104.6239 271° West 163 188 5,300 -840 Descending Denver Center
02:15AM 39.8500 -104.6667 180° South  Level FlightAware Approximate
02:22AM 39.8617 -104.6732 180° South  Level Estimated
02:23AM 39.8617 -104.6732 180° South  Level Estimated
02:24AM 39.8617 -104.6732 180° South  Level Estimated